Terminal Aerodrome Forecast
Issued by NWS Jackson, KY

Home | Current Version | Previous Version | Text Only | Print | Product List | Glossary On
Versions: 1 2 3 4 5 6 7 8 9 10 11 12 13 14 15 16 17 18 19 20
000
FTUS43 KJKL 262300
TAFLOZ
TAF
KLOZ 262338Z 2700/2724 30009KT P6SM VCSH OVC015
     FM270600 30003KT 2SM -SHSN OVC006
     FM271500 34006KT P6SM OVC020
     FM271800 34005KT P6SM BKN035
     FM272100 33006KT P6SM SCT040 SCT060=

USA.gov is the U.S. government's official web portal to all federal, state and local government web resources and services.